sensor_id;sensor_type;location;lat;lon;timestamp;pressure;altitude;pressure_sealevel;temperature;humidity
46241;BME280;31961;52.416;-0.732;2023-01-29T00:01:02;102138.16;;;2.36;100.00
46241;BME280;31961;52.416;-0.732;2023-01-29T00:03:30;102136.20;;;2.42;100.00
46241;BME280;31961;52.416;-0.732;2023-01-29T00:05:57;102127.64;;;2.27;100.00
46241;BME280;31961;52.416;-0.732;2023-01-29T00:08:25;102120.94;;;2.39;100.00
46241;BME280;31961;52.416;-0.732;2023-01-29T00:10:52;102111.32;;;2.31;100.00
46241;BME280;31961;52.416;-0.732;2023-01-29T00:13:19;102108.98;;;2.50;100.00
46241;BME280;31961;52.416;-0.732;2023-01-29T00:15:53;102101.49;;;3.25;100.00
46241;BME280;31961;52.416;-0.732;2023-01-29T00:18:20;102103.92;;;2.60;100.00
46241;BME280;31961;52.416;-0.732;2023-01-29T00:20:48;102106.58;;;2.70;100.00
46241;BME280;31961;52.416;-0.732;2023-01-29T00:23:16;102108.39;;;2.57;100.00
46241;BME280;31961;52.416;-0.732;2023-01-29T00:25:44;102109.01;;;1.60;100.00
46241;BME280;31961;52.416;-0.732;2023-01-29T00:28:12;102111.77;;;2.92;100.00
46241;BME280;31961;52.416;-0.732;2023-01-29T00:30:40;102106.91;;;2.57;100.00
46241;BME280;31961;52.416;-0.732;2023-01-29T00:33:07;102102.63;;;3.06;100.00
46241;BME280;31961;52.416;-0.732;2023-01-29T00:35:38;102106.39;;;2.06;100.00
46241;BME280;31961;52.416;-0.732;2023-01-29T00:38:06;102104.52;;;1.92;100.00
46241;BME280;31961;52.416;-0.732;2023-01-29T00:40:37;102102.90;;;2.96;100.00
46241;BME280;31961;52.416;-0.732;2023-01-29T00:43:04;102100.21;;;2.54;100.00
46241;BME280;31961;52.416;-0.732;2023-01-29T00:45:31;102103.21;;;2.34;100.00
46241;BME280;31961;52.416;-0.732;2023-01-29T00:47:58;102106.82;;;1.84;100.00
46241;BME280;31961;52.416;-0.732;2023-01-29T00:50:26;102101.98;;;2.25;100.00
46241;BME280;31961;52.416;-0.732;2023-01-29T00:52:53;102110.17;;;1.37;100.00
46241;BME280;31961;52.416;-0.732;2023-01-29T00:55:21;102116.52;;;1.33;100.00
46241;BME280;31961;52.416;-0.732;2023-01-29T00:57:48;102120.60;;;1.34;100.00
46241;BME280;31961;52.416;-0.732;2023-01-29T01:00:17;102117.57;;;2.03;100.00
46241;BME280;31961;52.416;-0.732;2023-01-29T01:02:44;102117.78;;;1.79;100.00
46241;BME280;31961;52.416;-0.732;2023-01-29T01:05:13;102118.28;;;1.11;100.00
46241;BME280;31961;52.416;-0.732;2023-01-29T01:07:41;102113.81;;;1.69;100.00
46241;BME280;31961;52.416;-0.732;2023-01-29T01:10:11;102116.96;;;1.16;100.00
46241;BME280;31961;52.416;-0.732;2023-01-29T01:12:39;102112.81;;;1.73;100.00
46241;BME280;31961;52.416;-0.732;2023-01-29T01:15:06;102111.11;;;2.06;100.00
46241;BME280;31961;52.416;-0.732;2023-01-29T01:17:34;102113.63;;;0.69;100.00
46241;BME280;31961;52.416;-0.732;2023-01-29T01:20:02;102114.70;;;1.39;100.00
46241;BME280;31961;52.416;-0.732;2023-01-29T01:22:29;102116.41;;;0.97;100.00
46241;BME280;31961;52.416;-0.732;2023-01-29T01:24:57;102107.26;;;1.49;100.00
46241;BME280;31961;52.416;-0.732;2023-01-29T01:27:24;102097.50;;;2.00;100.00
46241;BME280;31961;52.416;-0.732;2023-01-29T01:29:52;102097.11;;;1.94;100.00
46241;BME280;31961;52.416;-0.732;2023-01-29T01:32:19;102100.16;;;1.40;100.00
46241;BME280;31961;52.416;-0.732;2023-01-29T01:34:46;102102.75;;;1.13;100.00
46241;BME280;31961;52.416;-0.732;2023-01-29T01:37:14;102107.15;;;1.33;100.00
46241;BME280;31961;52.416;-0.732;2023-01-29T01:39:41;102104.94;;;1.35;100.00
46241;BME280;31961;52.416;-0.732;2023-01-29T01:42:11;102096.54;;;1.80;100.00
46241;BME280;31961;52.416;-0.732;2023-01-29T01:44:57;102089.70;;;2.02;100.00
46241;BME280;31961;52.416;-0.732;2023-01-29T01:47:30;102090.73;;;1.95;100.00
46241;BME280;31961;52.416;-0.732;2023-01-29T01:50:02;102083.33;;;2.21;100.00
46241;BME280;31961;52.416;-0.732;2023-01-29T01:52:31;102094.21;;;0.47;100.00
46241;BME280;31961;52.416;-0.732;2023-01-29T01:54:59;102090.02;;;0.68;100.00
46241;BME280;31961;52.416;-0.732;2023-01-29T01:57:28;102089.09;;;0.55;100.00
46241;BME280;31961;52.416;-0.732;2023-01-29T02:00:02;102083.77;;;0.67;100.00
46241;BME280;31961;52.416;-0.732;2023-01-29T02:02:30;102082.81;;;0.87;100.00
46241;BME280;31961;52.416;-0.732;2023-01-29T02:04:57;102084.51;;;0.87;100.00
46241;BME280;31961;52.416;-0.732;2023-01-29T02:07:25;102084.41;;;0.80;100.00
46241;BME280;31961;52.416;-0.732;2023-01-29T02:09:55;102084.08;;;1.06;100.00
46241;BME280;31961;52.416;-0.732;2023-01-29T02:12:26;102088.98;;;0.19;100.00
46241;BME280;31961;52.416;-0.732;2023-01-29T02:14:53;102093.57;;;0.41;100.00
46241;BME280;31961;52.416;-0.732;2023-01-29T02:17:21;102094.11;;;0.55;100.00
46241;BME280;31961;52.416;-0.732;2023-01-29T02:19:54;102087.76;;;-0.35;100.00
46241;BME280;31961;52.416;-0.732;2023-01-29T02:22:44;102079.10;;;0.20;100.00
46241;BME280;31961;52.416;-0.732;2023-01-29T02:25:28;102069.41;;;0.41;100.00
46241;BME280;31961;52.416;-0.732;2023-01-29T02:28:18;102061.19;;;0.77;100.00
46241;BME280;31961;52.416;-0.732;2023-01-29T02:30:55;102057.19;;;0.54;100.00
46241;BME280;31961;52.416;-0.732;2023-01-29T02:33:35;102056.07;;;0.62;100.00
46241;BME280;31961;52.416;-0.732;2023-01-29T02:36:13;102055.61;;;0.33;100.00
46241;BME280;31961;52.416;-0.732;2023-01-29T02:38:47;102046.77;;;0.82;100.00
46241;BME280;31961;52.416;-0.732;2023-01-29T02:41:24;102042.25;;;-0.23;100.00
46241;BME280;31961;52.416;-0.732;2023-01-29T02:43:58;102043.25;;;-0.23;100.00
46241;BME280;31961;52.416;-0.732;2023-01-29T02:46:31;102040.41;;;0.14;100.00
46241;BME280;31961;52.416;-0.732;2023-01-29T02:49:08;102040.22;;;0.44;100.00
46241;BME280;31961;52.416;-0.732;2023-01-29T02:51:40;102039.51;;;0.04;100.00
46241;BME280;31961;52.416;-0.732;2023-01-29T02:54:14;102038.47;;;0.24;100.00
46241;BME280;31961;52.416;-0.732;2023-01-29T02:56:50;102039.61;;;0.72;100.00
46241;BME280;31961;52.416;-0.732;2023-01-29T02:59:22;102037.08;;;0.88;100.00
46241;BME280;31961;52.416;-0.732;2023-01-29T03:01:53;102027.97;;;1.32;100.00
46241;BME280;31961;52.416;-0.732;2023-01-29T03:04:27;102015.76;;;1.46;100.00
46241;BME280;31961;52.416;-0.732;2023-01-29T03:06:58;102018.11;;;0.24;100.00
46241;BME280;31961;52.416;-0.732;2023-01-29T03:09:31;102019.49;;;0.54;100.00
46241;BME280;31961;52.416;-0.732;2023-01-29T03:12:03;102019.63;;;1.29;100.00
46241;BME280;31961;52.416;-0.732;2023-01-29T03:14:35;102023.84;;;0.34;100.00
46241;BME280;31961;52.416;-0.732;2023-01-29T03:17:05;102009.74;;;0.76;100.00
46241;BME280;31961;52.416;-0.732;2023-01-29T03:19:37;101999.92;;;1.39;100.00
46241;BME280;31961;52.416;-0.732;2023-01-29T03:22:06;101997.08;;;0.30;100.00
46241;BME280;31961;52.416;-0.732;2023-01-29T03:24:39;101988.01;;;0.70;100.00
46241;BME280;31961;52.416;-0.732;2023-01-29T03:27:10;101987.30;;;1.30;100.00
46241;BME280;31961;52.416;-0.732;2023-01-29T03:29:41;101985.44;;;0.95;100.00
46241;BME280;31961;52.416;-0.732;2023-01-29T03:32:09;101976.64;;;1.78;100.00
46241;BME280;31961;52.416;-0.732;2023-01-29T03:34:40;101980.29;;;1.02;100.00
46241;BME280;31961;52.416;-0.732;2023-01-29T03:37:12;101971.61;;;1.14;100.00
46241;BME280;31961;52.416;-0.732;2023-01-29T03:39:41;101982.23;;;-0.29;100.00
46241;BME280;31961;52.416;-0.732;2023-01-29T03:42:16;101985.66;;;0.59;100.00
46241;BME280;31961;52.416;-0.732;2023-01-29T03:44:53;101979.38;;;0.23;100.00
46241;BME280;31961;52.416;-0.732;2023-01-29T03:47:30;101975.67;;;-0.09;100.00
46241;BME280;31961;52.416;-0.732;2023-01-29T03:50:02;101983.65;;;0.20;100.00
46241;BME280;31961;52.416;-0.732;2023-01-29T03:52:39;101980.57;;;0.07;100.00
46241;BME280;31961;52.416;-0.732;2023-01-29T03:55:14;101967.02;;;0.79;100.00
46241;BME280;31961;52.416;-0.732;2023-01-29T03:57:49;101950.45;;;1.10;100.00
46241;BME280;31961;52.416;-0.732;2023-01-29T04:00:22;101955.94;;;0.36;100.00
46241;BME280;31961;52.416;-0.732;2023-01-29T04:02:58;101958.37;;;0.14;100.00
46241;BME280;31961;52.416;-0.732;2023-01-29T04:05:32;101953.86;;;0.46;100.00
46241;BME280;31961;52.416;-0.732;2023-01-29T04:08:07;101957.81;;;0.08;100.00
46241;BME280;31961;52.416;-0.732;2023-01-29T04:10:37;101959.24;;;0.05;100.00
46241;BME280;31961;52.416;-0.732;2023-01-29T04:13:07;101973.94;;;-0.13;100.00
46241;BME280;31961;52.416;-0.732;2023-01-29T04:15:39;101968.11;;;0.15;100.00
46241;BME280;31961;52.416;-0.732;2023-01-29T04:18:10;101968.99;;;0.17;100.00
46241;BME280;31961;52.416;-0.732;2023-01-29T04:20:37;101958.66;;;1.00;100.00
46241;BME280;31961;52.416;-0.732;2023-01-29T04:23:06;101958.13;;;0.91;100.00
46241;BME280;31961;52.416;-0.732;2023-01-29T04:25:47;101965.52;;;0.49;100.00
46241;BME280;31961;52.416;-0.732;2023-01-29T04:28:22;101949.53;;;1.39;100.00
46241;BME280;31961;52.416;-0.732;2023-01-29T04:30:53;101940.97;;;1.36;100.00
46241;BME280;31961;52.416;-0.732;2023-01-29T04:33:31;101936.45;;;1.20;100.00
46241;BME280;31961;52.416;-0.732;2023-01-29T04:36:12;101942.34;;;0.37;100.00
46241;BME280;31961;52.416;-0.732;2023-01-29T04:38:50;101930.68;;;0.50;100.00
46241;BME280;31961;52.416;-0.732;2023-01-29T04:41:24;101925.71;;;0.70;100.00
46241;BME280;31961;52.416;-0.732;2023-01-29T04:44:01;101918.83;;;0.53;100.00
46241;BME280;31961;52.416;-0.732;2023-01-29T04:46:37;101921.42;;;-0.21;100.00
46241;BME280;31961;52.416;-0.732;2023-01-29T04:49:16;101905.09;;;0.72;100.00
46241;BME280;31961;52.416;-0.732;2023-01-29T04:51:49;101908.44;;;0.30;100.00
46241;BME280;31961;52.416;-0.732;2023-01-29T04:54:24;101909.28;;;0.18;100.00
46241;BME280;31961;52.416;-0.732;2023-01-29T04:56:59;101909.82;;;0.66;100.00
46241;BME280;31961;52.416;-0.732;2023-01-29T04:59:32;101902.17;;;1.43;100.00
46241;BME280;31961;52.416;-0.732;2023-01-29T05:02:03;101904.12;;;0.95;100.00
46241;BME280;31961;52.416;-0.732;2023-01-29T05:04:33;101910.00;;;0.63;100.00
46241;BME280;31961;52.416;-0.732;2023-01-29T05:07:04;101907.18;;;0.57;100.00
46241;BME280;31961;52.416;-0.732;2023-01-29T05:09:33;101898.65;;;0.32;100.00
46241;BME280;31961;52.416;-0.732;2023-01-29T05:12:03;101895.70;;;-0.15;100.00
46241;BME280;31961;52.416;-0.732;2023-01-29T05:14:33;101881.97;;;0.50;100.00
46241;BME280;31961;52.416;-0.732;2023-01-29T05:17:03;101886.86;;;0.08;100.00
46241;BME280;31961;52.416;-0.732;2023-01-29T05:19:33;101880.33;;;0.48;100.00
46241;BME280;31961;52.416;-0.732;2023-01-29T05:22:03;101891.87;;;-0.35;100.00
46241;BME280;31961;52.416;-0.732;2023-01-29T05:24:30;101883.20;;;-0.06;100.00
46241;BME280;31961;52.416;-0.732;2023-01-29T05:26:58;101869.46;;;0.54;100.00
46241;BME280;31961;52.416;-0.732;2023-01-29T05:29:25;101875.98;;;0.06;100.00
46241;BME280;31961;52.416;-0.732;2023-01-29T05:31:52;101865.95;;;0.65;100.00
46241;BME280;31961;52.416;-0.732;2023-01-29T05:34:19;101863.77;;;-0.35;100.00
46241;BME280;31961;52.416;-0.732;2023-01-29T05:36:47;101869.53;;;0.39;100.00
46241;BME280;31961;52.416;-0.732;2023-01-29T05:39:14;101853.22;;;1.04;100.00
46241;BME280;31961;52.416;-0.732;2023-01-29T05:41:41;101851.74;;;0.58;100.00
46241;BME280;31961;52.416;-0.732;2023-01-29T05:44:09;101853.60;;;0.47;100.00
46241;BME280;31961;52.416;-0.732;2023-01-29T05:46:37;101852.82;;;0.13;100.00
46241;BME280;31961;52.416;-0.732;2023-01-29T05:49:05;101845.11;;;0.80;100.00
46241;BME280;31961;52.416;-0.732;2023-01-29T05:51:32;101841.88;;;0.75;100.00
46241;BME280;31961;52.416;-0.732;2023-01-29T05:54:00;101834.53;;;0.28;100.00
46241;BME280;31961;52.416;-0.732;2023-01-29T05:56:27;101831.19;;;0.98;100.00
46241;BME280;31961;52.416;-0.732;2023-01-29T05:58:55;101827.84;;;1.24;100.00
46241;BME280;31961;52.416;-0.732;2023-01-29T06:01:24;101826.86;;;1.61;100.00
46241;BME280;31961;52.416;-0.732;2023-01-29T06:03:52;101826.10;;;0.73;100.00
46241;BME280;31961;52.416;-0.732;2023-01-29T06:06:19;101829.71;;;0.58;100.00
46241;BME280;31961;52.416;-0.732;2023-01-29T06:08:46;101827.95;;;0.31;100.00
46241;BME280;31961;52.416;-0.732;2023-01-29T06:11:15;101825.95;;;0.21;100.00
46241;BME280;31961;52.416;-0.732;2023-01-29T06:13:42;101823.15;;;0.37;100.00
46241;BME280;31961;52.416;-0.732;2023-01-29T06:16:12;101827.43;;;0.05;100.00
46241;BME280;31961;52.416;-0.732;2023-01-29T06:18:40;101821.20;;;0.44;100.00
46241;BME280;31961;52.416;-0.732;2023-01-29T06:21:09;101826.81;;;1.21;100.00
46241;BME280;31961;52.416;-0.732;2023-01-29T06:23:37;101827.29;;;0.50;100.00
46241;BME280;31961;52.416;-0.732;2023-01-29T06:26:07;101821.52;;;1.09;100.00
46241;BME280;31961;52.416;-0.732;2023-01-29T06:28:34;101820.31;;;0.19;100.00
46241;BME280;31961;52.416;-0.732;2023-01-29T06:31:03;101831.72;;;-0.18;100.00
46241;BME280;31961;52.416;-0.732;2023-01-29T06:33:30;101829.30;;;0.29;100.00
46241;BME280;31961;52.416;-0.732;2023-01-29T06:35:59;101831.78;;;0.05;100.00
46241;BME280;31961;52.416;-0.732;2023-01-29T06:38:27;101822.90;;;0.26;100.00
46241;BME280;31961;52.416;-0.732;2023-01-29T06:40:55;101820.74;;;0.65;100.00
46241;BME280;31961;52.416;-0.732;2023-01-29T06:43:22;101817.16;;;0.46;100.00
46241;BME280;31961;52.416;-0.732;2023-01-29T06:45:51;101809.56;;;1.01;100.00
46241;BME280;31961;52.416;-0.732;2023-01-29T06:48:19;101809.42;;;1.08;100.00
46241;BME280;31961;52.416;-0.732;2023-01-29T06:50:47;101804.26;;;1.57;100.00
46241;BME280;31961;52.416;-0.732;2023-01-29T06:53:14;101803.06;;;0.54;100.00
46241;BME280;31961;52.416;-0.732;2023-01-29T06:55:41;101802.60;;;0.43;100.00
46241;BME280;31961;52.416;-0.732;2023-01-29T06:58:10;101800.33;;;0.96;100.00
46241;BME280;31961;52.416;-0.732;2023-01-29T07:00:38;101796.06;;;0.97;100.00
46241;BME280;31961;52.416;-0.732;2023-01-29T07:03:05;101793.82;;;0.60;100.00
46241;BME280;31961;52.416;-0.732;2023-01-29T07:05:32;101795.40;;;-0.29;100.00
46241;BME280;31961;52.416;-0.732;2023-01-29T07:08:00;101785.15;;;0.44;100.00
46241;BME280;31961;52.416;-0.732;2023-01-29T07:10:27;101785.45;;;0.99;100.00
46241;BME280;31961;52.416;-0.732;2023-01-29T07:12:54;101784.25;;;1.18;100.00
46241;BME280;31961;52.416;-0.732;2023-01-29T07:15:21;101790.25;;;-0.30;100.00
46241;BME280;31961;52.416;-0.732;2023-01-29T07:17:57;101789.89;;;0.73;100.00
46241;BME280;31961;52.416;-0.732;2023-01-29T07:20:24;101790.48;;;0.87;100.00
46241;BME280;31961;52.416;-0.732;2023-01-29T07:22:52;101785.34;;;1.23;100.00
46241;BME280;31961;52.416;-0.732;2023-01-29T07:25:19;101787.34;;;0.45;100.00
46241;BME280;31961;52.416;-0.732;2023-01-29T07:27:47;101783.76;;;0.08;100.00
46241;BME280;31961;52.416;-0.732;2023-01-29T07:30:15;101778.73;;;0.20;100.00
46241;BME280;31961;52.416;-0.732;2023-01-29T07:32:42;101775.23;;;0.45;100.00
46241;BME280;31961;52.416;-0.732;2023-01-29T07:35:10;101778.54;;;0.48;100.00
46241;BME280;31961;52.416;-0.732;2023-01-29T07:37:37;101785.22;;;0.07;100.00
46241;BME280;31961;52.416;-0.732;2023-01-29T07:40:06;101783.10;;;0.67;100.00
46241;BME280;31961;52.416;-0.732;2023-01-29T07:42:33;101781.05;;;0.88;100.00
46241;BME280;31961;52.416;-0.732;2023-01-29T07:45:00;101788.21;;;0.13;100.00
46241;BME280;31961;52.416;-0.732;2023-01-29T07:47:27;101777.99;;;0.90;100.00
46241;BME280;31961;52.416;-0.732;2023-01-29T07:49:54;101775.66;;;0.82;100.00
46241;BME280;31961;52.416;-0.732;2023-01-29T07:52:21;101769.07;;;0.51;100.00
46241;BME280;31961;52.416;-0.732;2023-01-29T07:54:48;101762.22;;;0.47;100.00
46241;BME280;31961;52.416;-0.732;2023-01-29T07:57:16;101769.47;;;0.21;100.00
46241;BME280;31961;52.416;-0.732;2023-01-29T07:59:43;101764.02;;;-0.20;100.00
46241;BME280;31961;52.416;-0.732;2023-01-29T08:02:11;101764.27;;;0.07;100.00
46241;BME280;31961;52.416;-0.732;2023-01-29T08:04:38;101759.68;;;-0.03;100.00
46241;BME280;31961;52.416;-0.732;2023-01-29T08:07:06;101753.14;;;-0.11;100.00
46241;BME280;31961;52.416;-0.732;2023-01-29T08:09:33;101760.93;;;0.48;100.00
46241;BME280;31961;52.416;-0.732;2023-01-29T08:12:00;101764.00;;;0.94;100.00
46241;BME280;31961;52.416;-0.732;2023-01-29T08:14:28;101756.37;;;0.65;100.00
46241;BME280;31961;52.416;-0.732;2023-01-29T08:16:55;101753.48;;;0.12;100.00
46241;BME280;31961;52.416;-0.732;2023-01-29T08:19:21;101752.35;;;0.38;100.00
46241;BME280;31961;52.416;-0.732;2023-01-29T08:21:48;101754.54;;;0.82;100.00
46241;BME280;31961;52.416;-0.732;2023-01-29T08:24:15;101762.92;;;-0.19;100.00
46241;BME280;31961;52.416;-0.732;2023-01-29T08:26:43;101764.41;;;-0.06;100.00
46241;BME280;31961;52.416;-0.732;2023-01-29T08:29:10;101759.45;;;0.53;100.00
46241;BME280;31961;52.416;-0.732;2023-01-29T08:31:37;101752.27;;;0.79;100.00
46241;BME280;31961;52.416;-0.732;2023-01-29T08:34:05;101748.17;;;1.15;100.00
46241;BME280;31961;52.416;-0.732;2023-01-29T08:36:32;101750.47;;;0.15;100.00
46241;BME280;31961;52.416;-0.732;2023-01-29T08:38:59;101750.90;;;0.97;100.00
46241;BME280;31961;52.416;-0.732;2023-01-29T08:41:26;101751.40;;;0.92;100.00
46241;BME280;31961;52.416;-0.732;2023-01-29T08:43:54;101756.87;;;1.05;100.00
46241;BME280;31961;52.416;-0.732;2023-01-29T08:46:21;101759.91;;;0.72;100.00
46241;BME280;31961;52.416;-0.732;2023-01-29T08:48:48;101759.68;;;0.93;100.00
46241;BME280;31961;52.416;-0.732;2023-01-29T08:51:16;101760.16;;;0.64;100.00
46241;BME280;31961;52.416;-0.732;2023-01-29T08:53:43;101763.68;;;0.54;100.00
46241;BME280;31961;52.416;-0.732;2023-01-29T08:56:11;101756.71;;;0.71;100.00
46241;BME280;31961;52.416;-0.732;2023-01-29T08:58:38;101755.78;;;0.73;100.00
46241;BME280;31961;52.416;-0.732;2023-01-29T09:01:07;101761.48;;;0.84;100.00
46241;BME280;31961;52.416;-0.732;2023-01-29T09:03:34;101757.87;;;0.42;100.00
46241;BME280;31961;52.416;-0.732;2023-01-29T09:06:02;101758.84;;;0.99;100.00
46241;BME280;31961;52.416;-0.732;2023-01-29T09:08:29;101755.92;;;0.84;100.00
46241;BME280;31961;52.416;-0.732;2023-01-29T09:10:57;101752.50;;;1.22;100.00
46241;BME280;31961;52.416;-0.732;2023-01-29T09:13:25;101756.43;;;0.36;100.00
46241;BME280;31961;52.416;-0.732;2023-01-29T09:15:52;101759.93;;;1.08;100.00
46241;BME280;31961;52.416;-0.732;2023-01-29T09:18:20;101761.34;;;1.08;100.00
46241;BME280;31961;52.416;-0.732;2023-01-29T09:20:47;101755.55;;;0.64;100.00
46241;BME280;31961;52.416;-0.732;2023-01-29T09:23:14;101748.34;;;1.40;100.00
46241;BME280;31961;52.416;-0.732;2023-01-29T09:25:42;101748.45;;;1.82;100.00
46241;BME280;31961;52.416;-0.732;2023-01-29T09:28:09;101752.49;;;1.23;100.00
46241;BME280;31961;52.416;-0.732;2023-01-29T09:30:36;101755.43;;;1.37;100.00
46241;BME280;31961;52.416;-0.732;2023-01-29T09:33:04;101754.14;;;1.05;100.00
46241;BME280;31961;52.416;-0.732;2023-01-29T09:35:31;101752.26;;;1.08;100.00
46241;BME280;31961;52.416;-0.732;2023-01-29T09:37:58;101754.97;;;0.84;100.00
46241;BME280;31961;52.416;-0.732;2023-01-29T09:40:30;101752.16;;;0.44;100.00
46241;BME280;31961;52.416;-0.732;2023-01-29T09:43:02;101753.54;;;0.91;100.00
46241;BME280;31961;52.416;-0.732;2023-01-29T09:45:31;101750.88;;;0.80;100.00
46241;BME280;31961;52.416;-0.732;2023-01-29T09:48:01;101744.60;;;1.90;100.00
46241;BME280;31961;52.416;-0.732;2023-01-29T09:50:33;101738.85;;;1.40;100.00
46241;BME280;31961;52.416;-0.732;2023-01-29T09:53:06;101740.47;;;1.40;100.00
46241;BME280;31961;52.416;-0.732;2023-01-29T09:55:41;101733.34;;;1.81;100.00
46241;BME280;31961;52.416;-0.732;2023-01-29T09:58:16;101728.68;;;2.51;100.00
46241;BME280;31961;52.416;-0.732;2023-01-29T10:00:50;101731.54;;;1.38;100.00
46241;BME280;31961;52.416;-0.732;2023-01-29T10:03:35;101731.15;;;1.60;100.00
46241;BME280;31961;52.416;-0.732;2023-01-29T10:06:18;101737.49;;;1.73;100.00
46241;BME280;31961;52.416;-0.732;2023-01-29T10:09:02;101737.42;;;2.06;100.00
46241;BME280;31961;52.416;-0.732;2023-01-29T10:11:44;101736.87;;;2.02;100.00
46241;BME280;31961;52.416;-0.732;2023-01-29T10:14:18;101739.91;;;2.08;100.00
46241;BME280;31961;52.416;-0.732;2023-01-29T10:16:58;101738.49;;;1.83;100.00
46241;BME280;31961;52.416;-0.732;2023-01-29T10:19:44;101733.13;;;1.73;100.00
46241;BME280;31961;52.416;-0.732;2023-01-29T10:22:29;101735.37;;;1.82;100.00
46241;BME280;31961;52.416;-0.732;2023-01-29T10:25:03;101725.09;;;1.51;100.00
46241;BME280;31961;52.416;-0.732;2023-01-29T10:27:32;101725.55;;;2.03;100.00
46241;BME280;31961;52.416;-0.732;2023-01-29T10:30:02;101724.82;;;2.10;100.00
46241;BME280;31961;52.416;-0.732;2023-01-29T10:32:31;101724.32;;;2.08;100.00
46241;BME280;31961;52.416;-0.732;2023-01-29T10:35:03;101723.23;;;1.94;100.00
46241;BME280;31961;52.416;-0.732;2023-01-29T10:37:36;101720.93;;;1.98;100.00
46241;BME280;31961;52.416;-0.732;2023-01-29T10:40:17;101711.69;;;2.53;100.00
46241;BME280;31961;52.416;-0.732;2023-01-29T10:42:51;101703.85;;;2.26;100.00
46241;BME280;31961;52.416;-0.732;2023-01-29T10:45:26;101691.72;;;2.33;100.00
46241;BME280;31961;52.416;-0.732;2023-01-29T10:48:08;101691.86;;;2.20;100.00
46241;BME280;31961;52.416;-0.732;2023-01-29T10:50:46;101689.21;;;2.14;100.00
46241;BME280;31961;52.416;-0.732;2023-01-29T10:53:24;101684.43;;;2.15;100.00
46241;BME280;31961;52.416;-0.732;2023-01-29T10:56:01;101681.60;;;2.03;100.00
46241;BME280;31961;52.416;-0.732;2023-01-29T10:58:37;101671.88;;;2.08;100.00
46241;BME280;31961;52.416;-0.732;2023-01-29T11:01:07;101675.75;;;2.12;100.00
46241;BME280;31961;52.416;-0.732;2023-01-29T11:03:34;101667.44;;;2.22;100.00
46241;BME280;31961;52.416;-0.732;2023-01-29T11:06:10;101666.34;;;2.26;100.00
46241;BME280;31961;52.416;-0.732;2023-01-29T11:08:42;101660.05;;;2.18;100.00
46241;BME280;31961;52.416;-0.732;2023-01-29T11:11:14;101658.50;;;2.25;100.00
46241;BME280;31961;52.416;-0.732;2023-01-29T11:13:44;101662.13;;;2.08;100.00
46241;BME280;31961;52.416;-0.732;2023-01-29T11:16:14;101659.61;;;1.98;100.00
46241;BME280;31961;52.416;-0.732;2023-01-29T11:18:52;101654.81;;;2.60;100.00
46241;BME280;31961;52.416;-0.732;2023-01-29T11:21:21;101654.03;;;2.21;100.00
46241;BME280;31961;52.416;-0.732;2023-01-29T11:23:48;101649.76;;;2.65;100.00
46241;BME280;31961;52.416;-0.732;2023-01-29T11:26:18;101651.19;;;2.27;100.00
46241;BME280;31961;52.416;-0.732;2023-01-29T11:28:48;101648.55;;;2.28;100.00
46241;BME280;31961;52.416;-0.732;2023-01-29T11:31:20;101644.77;;;2.55;100.00
46241;BME280;31961;52.416;-0.732;2023-01-29T11:33:50;101632.74;;;2.47;100.00
46241;BME280;31961;52.416;-0.732;2023-01-29T11:36:25;101622.14;;;3.27;100.00
46241;BME280;31961;52.416;-0.732;2023-01-29T11:39:17;101615.95;;;2.54;100.00
46241;BME280;31961;52.416;-0.732;2023-01-29T11:41:48;101616.31;;;2.79;100.00
46241;BME280;31961;52.416;-0.732;2023-01-29T11:44:20;101603.63;;;2.93;100.00
46241;BME280;31961;52.416;-0.732;2023-01-29T11:46:48;101599.24;;;3.35;100.00
46241;BME280;31961;52.416;-0.732;2023-01-29T11:49:25;101601.51;;;2.73;100.00
46241;BME280;31961;52.416;-0.732;2023-01-29T11:51:56;101588.17;;;3.16;100.00
46241;BME280;31961;52.416;-0.732;2023-01-29T11:54:27;101582.40;;;3.27;100.00
46241;BME280;31961;52.416;-0.732;2023-01-29T11:56:56;101576.23;;;3.01;100.00
46241;BME280;31961;52.416;-0.732;2023-01-29T11:59:34;101575.52;;;3.31;100.00
46241;BME280;31961;52.416;-0.732;2023-01-29T12:02:15;101583.86;;;2.82;100.00
46241;BME280;31961;52.416;-0.732;2023-01-29T12:04:43;101575.54;;;2.78;100.00
46241;BME280;31961;52.416;-0.732;2023-01-29T12:07:13;101559.41;;;2.60;100.00
46241;BME280;31961;52.416;-0.732;2023-01-29T12:09:48;101552.53;;;2.70;100.00
46241;BME280;31961;52.416;-0.732;2023-01-29T12:12:28;101547.68;;;3.07;100.00
46241;BME280;31961;52.416;-0.732;2023-01-29T12:15:13;101550.01;;;2.73;100.00
46241;BME280;31961;52.416;-0.732;2023-01-29T12:17:44;101533.86;;;2.75;100.00
46241;BME280;31961;52.416;-0.732;2023-01-29T12:20:16;101531.26;;;2.88;100.00
46241;BME280;31961;52.416;-0.732;2023-01-29T12:22:47;101519.42;;;3.52;100.00
46241;BME280;31961;52.416;-0.732;2023-01-29T12:25:21;101523.44;;;2.96;100.00
46241;BME280;31961;52.416;-0.732;2023-01-29T12:27:55;101519.99;;;3.02;100.00
46241;BME280;31961;52.416;-0.732;2023-01-29T12:30:29;101524.90;;;2.64;100.00
46241;BME280;31961;52.416;-0.732;2023-01-29T12:33:02;101530.42;;;3.01;100.00
46241;BME280;31961;52.416;-0.732;2023-01-29T12:35:34;101519.29;;;2.60;100.00
46241;BME280;31961;52.416;-0.732;2023-01-29T12:38:06;101508.16;;;3.11;100.00
46241;BME280;31961;52.416;-0.732;2023-01-29T12:40:40;101496.05;;;3.00;100.00
46241;BME280;31961;52.416;-0.732;2023-01-29T12:43:15;101494.23;;;3.69;100.00
46241;BME280;31961;52.416;-0.732;2023-01-29T12:45:43;101491.01;;;3.24;100.00
46241;BME280;31961;52.416;-0.732;2023-01-29T12:48:18;101484.22;;;3.85;100.00
46241;BME280;31961;52.416;-0.732;2023-01-29T12:50:48;101469.64;;;3.85;100.00
46241;BME280;31961;52.416;-0.732;2023-01-29T12:53:24;101469.71;;;3.37;100.00
46241;BME280;31961;52.416;-0.732;2023-01-29T12:55:54;101471.08;;;3.41;100.00
46241;BME280;31961;52.416;-0.732;2023-01-29T12:58:27;101464.95;;;3.72;100.00